world map with EVN marked

EVN - Airport

This information may not be accurate or current and is not valid for navigation or flight planning. No warranty of fitness for any purpose is made or implied.

flag of Armenia

Donate via PayPal

Additional information is available on the NEW Great Circle Mapper

Location
City:  Yerevan, Armenia
Name:Zvartnots International (Zapadny)
ICAO / IATA:UDYZ / EVN

Details
Type:Airport (Aerodrome, Airfield)
Use:Public/Civil
Latitude:40°08'50"N (40.147275)
Longitude:44°23'45"E (44.395881)
Datum:WGS 1984
Elevation:2838 ft (865 m)
Runways:1
Longest:12629 × 184 ft (3849 × 56 m)

Time
Timezone:UTC+4 (DST+5)

Weather
METAR:UDYZ  041400Z 00000KT 9999 NSC 08/M07 Q1029 R09/010070 NOSIG
TAF:UDYZ  (expired)

Related Locations
Nearby:
Farthest:NEMO: 11584 mi / 18643 km
Pacific Ocean [Oceanic Pole of Inaccessibility (Point Nemo)]

Find:

   beyond  
but within

Other Information
Maps:
Links:
Sources:

  


 


Great Circle Mapper   Great Circle Mapper
Great Circle Mapper FAQ   Great Circle Mapper FAQ
  Karl's Home Page
KLSē   KLSē Home
   GC on Facebook
Airlines of the World   Airlines of the World
Donate via PayPal


Copyright © 2004-2022, Karl L. Swartz. All rights reserved.
All trademarks mentioned herein belong to their respective owners.

Please see credits for attribution and copyright information.

Karl Swartz <karl@kls2.com>
  Powered by FreeBSD
Valid HTML 4.01!
Labeled with ICRA
hCard Microformat
Geo Microformat